sensor_id;sensor_type;location;lat;lon;timestamp;pressure;altitude;pressure_sealevel;temperature;humidity
12486;BME280;6307;46.804;11.580;2022-11-15T00:00:55;-21050.03;;;6.59;100.00
12486;BME280;6307;46.804;11.580;2022-11-15T00:03:26;-21049.28;;;6.56;100.00
12486;BME280;6307;46.804;11.580;2022-11-15T00:05:52;-21046.88;;;6.48;100.00
12486;BME280;6307;46.804;11.580;2022-11-15T00:08:19;-21050.50;;;6.60;100.00
12486;BME280;6307;46.804;11.580;2022-11-15T00:10:59;-21054.72;;;6.74;100.00
12486;BME280;6307;46.804;11.580;2022-11-15T00:13:27;-21054.09;;;6.72;100.00
12486;BME280;6307;46.804;11.580;2022-11-15T00:15:57;-21049.75;;;6.58;100.00
12486;BME280;6307;46.804;11.580;2022-11-15T00:18:24;-21054.84;;;6.75;100.00
12486;BME280;6307;46.804;11.580;2022-11-15T00:20:50;-21049.44;;;6.57;100.00
12486;BME280;6307;46.804;11.580;2022-11-15T00:23:16;-21047.50;;;6.50;100.00
12486;BME280;6307;46.804;11.580;2022-11-15T00:25:42;-21054.84;;;6.75;100.00
12486;BME280;6307;46.804;11.580;2022-11-15T00:28:08;-21054.09;;;6.72;100.00
12486;BME280;6307;46.804;11.580;2022-11-15T00:30:35;-21044.63;;;6.41;100.00
12486;BME280;6307;46.804;11.580;2022-11-15T00:33:05;-21044.03;;;6.39;100.00
12486;BME280;6307;46.804;11.580;2022-11-15T00:35:32;-21042.97;;;6.35;100.00
12486;BME280;6307;46.804;11.580;2022-11-15T00:38:00;-21049.13;;;6.56;100.00
12486;BME280;6307;46.804;11.580;2022-11-15T00:40:26;-21048.53;;;6.54;100.00
12486;BME280;6307;46.804;11.580;2022-11-15T00:42:52;-21053.06;;;6.69;100.00
12486;BME280;6307;46.804;11.580;2022-11-15T00:45:18;-21046.13;;;6.46;100.00
12486;BME280;6307;46.804;11.580;2022-11-15T00:47:45;-21044.03;;;6.39;100.00
12486;BME280;6307;46.804;11.580;2022-11-15T00:50:11;-21041.91;;;6.32;100.00
12486;BME280;6307;46.804;11.580;2022-11-15T00:52:38;-21050.19;;;6.59;100.00
12486;BME280;6307;46.804;11.580;2022-11-15T00:55:04;-21043.56;;;6.37;100.00
12486;BME280;6307;46.804;11.580;2022-11-15T00:57:30;-21044.63;;;6.41;100.00
12486;BME280;6307;46.804;11.580;2022-11-15T00:59:57;-21046.59;;;6.47;100.00
12486;BME280;6307;46.804;11.580;2022-11-15T01:02:23;-21047.63;;;6.51;100.00
12486;BME280;6307;46.804;11.580;2022-11-15T01:04:49;-21045.06;;;6.42;100.00
12486;BME280;6307;46.804;11.580;2022-11-15T01:07:15;-21041.16;;;6.29;100.00
12486;BME280;6307;46.804;11.580;2022-11-15T01:09:41;-21044.47;;;6.40;100.00
12486;BME280;6307;46.804;11.580;2022-11-15T01:12:07;-21040.72;;;6.28;100.00
12486;BME280;6307;46.804;11.580;2022-11-15T01:14:33;-21042.22;;;6.33;100.00
12486;BME280;6307;46.804;11.580;2022-11-15T01:16:59;-21042.66;;;6.34;100.00
12486;BME280;6307;46.804;11.580;2022-11-15T01:19:25;-21046.44;;;6.47;100.00
12486;BME280;6307;46.804;11.580;2022-11-15T01:21:51;-21046.44;;;6.47;100.00
12486;BME280;6307;46.804;11.580;2022-11-15T01:24:17;-21044.19;;;6.39;100.00
12486;BME280;6307;46.804;11.580;2022-11-15T01:26:44;-21042.97;;;6.35;100.00
12486;BME280;6307;46.804;11.580;2022-11-15T01:29:10;-21043.88;;;6.38;100.00
12486;BME280;6307;46.804;11.580;2022-11-15T01:31:36;-21045.97;;;6.45;100.00
12486;BME280;6307;46.804;11.580;2022-11-15T01:34:03;-21043.56;;;6.37;100.00
12486;BME280;6307;46.804;11.580;2022-11-15T01:36:29;-21043.44;;;6.37;100.00
12486;BME280;6307;46.804;11.580;2022-11-15T01:38:57;-21043.28;;;6.36;100.00
12486;BME280;6307;46.804;11.580;2022-11-15T01:41:27;-21042.38;;;6.33;100.00
12486;BME280;6307;46.804;11.580;2022-11-15T01:43:57;-21045.22;;;6.43;100.00
12486;BME280;6307;46.804;11.580;2022-11-15T01:46:45;-21038.31;;;6.20;100.00
12486;BME280;6307;46.804;11.580;2022-11-15T01:49:17;-21041.03;;;6.29;100.00
12486;BME280;6307;46.804;11.580;2022-11-15T01:51:45;-21040.88;;;6.28;100.00
12486;BME280;6307;46.804;11.580;2022-11-15T01:54:15;-21045.38;;;6.43;100.00
12486;BME280;6307;46.804;11.580;2022-11-15T01:56:50;-21043.88;;;6.38;100.00
12486;BME280;6307;46.804;11.580;2022-11-15T01:59:21;-21049.28;;;6.56;100.00
12486;BME280;6307;46.804;11.580;2022-11-15T02:01:48;-21042.97;;;6.35;100.00
12486;BME280;6307;46.804;11.580;2022-11-15T02:04:26;-21042.22;;;6.33;100.00
12486;BME280;6307;46.804;11.580;2022-11-15T02:07:02;-21046.13;;;6.46;100.00
12486;BME280;6307;46.804;11.580;2022-11-15T02:09:29;-21046.44;;;6.47;100.00
12486;BME280;6307;46.804;11.580;2022-11-15T02:11:56;-21043.88;;;6.38;100.00
12486;BME280;6307;46.804;11.580;2022-11-15T02:14:26;-21047.63;;;6.51;100.00
12486;BME280;6307;46.804;11.580;2022-11-15T02:28:44;-21044.78;;;6.41;100.00
12486;BME280;6307;46.804;11.580;2022-11-15T02:37:23;-21044.19;;;6.39;100.00
12486;BME280;6307;46.804;11.580;2022-11-15T02:40:18;-21041.91;;;6.32;100.00
12486;BME280;6307;46.804;11.580;2022-11-15T02:43:10;-21044.78;;;6.41;100.00
12486;BME280;6307;46.804;11.580;2022-11-15T02:46:05;-21045.97;;;6.45;100.00
12486;BME280;6307;46.804;11.580;2022-11-15T02:49:13;-21044.63;;;6.41;100.00
12486;BME280;6307;46.804;11.580;2022-11-15T02:51:41;-21041.47;;;6.30;100.00
12486;BME280;6307;46.804;11.580;2022-11-15T02:54:17;-21044.94;;;6.42;100.00
12486;BME280;6307;46.804;11.580;2022-11-15T02:56:49;-21047.63;;;6.51;100.00
12486;BME280;6307;46.804;11.580;2022-11-15T03:08:23;-21053.06;;;6.69;100.00
12486;BME280;6307;46.804;11.580;2022-11-15T03:11:25;-21052.28;;;6.66;100.00
12486;BME280;6307;46.804;11.580;2022-11-15T03:22:19;-21047.19;;;6.49;100.00
12486;BME280;6307;46.804;11.580;2022-11-15T03:24:52;-21048.25;;;6.53;100.00
12486;BME280;6307;46.804;11.580;2022-11-15T03:27:25;-21049.13;;;6.56;100.00
12486;BME280;6307;46.804;11.580;2022-11-15T03:30:00;-21048.25;;;6.53;100.00
12486;BME280;6307;46.804;11.580;2022-11-15T03:32:32;-21048.25;;;6.53;100.00
12486;BME280;6307;46.804;11.580;2022-11-15T03:35:08;-21047.19;;;6.49;100.00
12486;BME280;6307;46.804;11.580;2022-11-15T03:38:03;-21045.81;;;6.45;100.00
12486;BME280;6307;46.804;11.580;2022-11-15T03:40:37;-21039.66;;;6.24;100.00
12486;BME280;6307;46.804;11.580;2022-11-15T03:43:29;-21041.78;;;6.31;100.00
12486;BME280;6307;46.804;11.580;2022-11-15T03:46:13;-21043.88;;;6.38;100.00
12486;BME280;6307;46.804;11.580;2022-11-15T03:48:52;-21047.34;;;6.50;100.00
12486;BME280;6307;46.804;11.580;2022-11-15T03:51:30;-21041.16;;;6.29;100.00
12486;BME280;6307;46.804;11.580;2022-11-15T03:53:57;-21044.47;;;6.40;100.00
12486;BME280;6307;46.804;11.580;2022-11-15T03:56:23;-21047.50;;;6.50;100.00
12486;BME280;6307;46.804;11.580;2022-11-15T03:58:49;-21049.28;;;6.56;100.00
12486;BME280;6307;46.804;11.580;2022-11-15T04:01:15;-21054.84;;;6.75;100.00
12486;BME280;6307;46.804;11.580;2022-11-15T04:03:41;-21050.94;;;6.62;100.00
12486;BME280;6307;46.804;11.580;2022-11-15T04:06:07;-21049.91;;;6.58;100.00
12486;BME280;6307;46.804;11.580;2022-11-15T04:08:33;-21043.13;;;6.36;100.00
12486;BME280;6307;46.804;11.580;2022-11-15T04:10:59;-21047.03;;;6.49;100.00
12486;BME280;6307;46.804;11.580;2022-11-15T04:13:25;-21047.50;;;6.50;100.00
12486;BME280;6307;46.804;11.580;2022-11-15T04:15:51;-21048.69;;;6.54;100.00
12486;BME280;6307;46.804;11.580;2022-11-15T04:18:17;-21051.09;;;6.62;100.00
12486;BME280;6307;46.804;11.580;2022-11-15T04:20:43;-21048.53;;;6.54;100.00
12486;BME280;6307;46.804;11.580;2022-11-15T04:23:28;-21055.16;;;6.76;100.00
12486;BME280;6307;46.804;11.580;2022-11-15T04:26:18;-21048.69;;;6.54;100.00
12486;BME280;6307;46.804;11.580;2022-11-15T04:28:46;-21055.16;;;6.76;100.00
12486;BME280;6307;46.804;11.580;2022-11-15T04:31:31;-21054.09;;;6.72;100.00
12486;BME280;6307;46.804;11.580;2022-11-15T04:33:57;-21051.25;;;6.63;100.00
12486;BME280;6307;46.804;11.580;2022-11-15T04:36:24;-21047.03;;;6.49;100.00
12486;BME280;6307;46.804;11.580;2022-11-15T04:39:09;-21050.50;;;6.60;100.00
12486;BME280;6307;46.804;11.580;2022-11-15T04:41:35;-21053.94;;;6.72;100.00
12486;BME280;6307;46.804;11.580;2022-11-15T04:44:01;-21051.25;;;6.63;100.00
12486;BME280;6307;46.804;11.580;2022-11-15T04:46:28;-21057.09;;;6.82;100.00
12486;BME280;6307;46.804;11.580;2022-11-15T04:48:54;-21054.09;;;6.72;100.00
12486;BME280;6307;46.804;11.580;2022-11-15T04:51:20;-21051.41;;;6.63;100.00
12486;BME280;6307;46.804;11.580;2022-11-15T04:53:46;-21052.28;;;6.66;100.00
12486;BME280;6307;46.804;11.580;2022-11-15T04:56:13;-21052.44;;;6.67;100.00
12486;BME280;6307;46.804;11.580;2022-11-15T04:58:39;-21055.31;;;6.76;100.00
12486;BME280;6307;46.804;11.580;2022-11-15T05:01:11;-21054.09;;;6.72;100.00
12486;BME280;6307;46.804;11.580;2022-11-15T05:03:44;-21051.25;;;6.63;100.00
12486;BME280;6307;46.804;11.580;2022-11-15T05:06:29;-21053.81;;;6.71;100.00
12486;BME280;6307;46.804;11.580;2022-11-15T05:08:56;-21059.06;;;6.89;100.00
12486;BME280;6307;46.804;11.580;2022-11-15T05:11:22;-21058.00;;;6.85;100.00
12486;BME280;6307;46.804;11.580;2022-11-15T05:13:49;-21060.25;;;6.93;100.00
12486;BME280;6307;46.804;11.580;2022-11-15T05:16:15;-21059.38;;;6.90;100.00
12486;BME280;6307;46.804;11.580;2022-11-15T05:18:42;-21059.22;;;6.89;100.00
12486;BME280;6307;46.804;11.580;2022-11-15T05:21:11;-21062.69;;;7.01;100.00
12486;BME280;6307;46.804;11.580;2022-11-15T05:23:39;-21061.03;;;6.95;100.00
12486;BME280;6307;46.804;11.580;2022-11-15T05:26:06;-21060.13;;;6.92;100.00
12486;BME280;6307;46.804;11.580;2022-11-15T05:28:34;-21056.22;;;6.79;100.00
12486;BME280;6307;46.804;11.580;2022-11-15T05:31:07;-21058.75;;;6.88;100.00
12486;BME280;6307;46.804;11.580;2022-11-15T05:33:40;-21059.22;;;6.89;100.00
12486;BME280;6307;46.804;11.580;2022-11-15T05:38:45;-21060.13;;;6.92;100.00
12486;BME280;6307;46.804;11.580;2022-11-15T05:41:14;-21059.97;;;6.92;100.00
12486;BME280;6307;46.804;11.580;2022-11-15T05:43:43;-21055.75;;;6.78;100.00
12486;BME280;6307;46.804;11.580;2022-11-15T05:46:10;-21054.56;;;6.74;100.00
12486;BME280;6307;46.804;11.580;2022-11-15T05:48:41;-21055.91;;;6.78;100.00
12486;BME280;6307;46.804;11.580;2022-11-15T05:51:12;-21056.81;;;6.81;100.00
12486;BME280;6307;46.804;11.580;2022-11-15T05:53:40;-21057.56;;;6.84;100.00
12486;BME280;6307;46.804;11.580;2022-11-15T05:56:09;-21064.63;;;7.07;100.00
12486;BME280;6307;46.804;11.580;2022-11-15T05:58:36;-21065.38;;;7.10;100.00
12486;BME280;6307;46.804;11.580;2022-11-15T06:01:03;-21063.28;;;7.03;100.00
12486;BME280;6307;46.804;11.580;2022-11-15T06:03:30;-21060.25;;;6.93;100.00
12486;BME280;6307;46.804;11.580;2022-11-15T06:05:56;-21059.50;;;6.90;100.00
12486;BME280;6307;46.804;11.580;2022-11-15T06:08:22;-21064.19;;;7.06;100.00
12486;BME280;6307;46.804;11.580;2022-11-15T06:10:48;-21062.06;;;6.99;100.00
12486;BME280;6307;46.804;11.580;2022-11-15T06:13:14;-21065.97;;;7.12;100.00
12486;BME280;6307;46.804;11.580;2022-11-15T06:15:41;-21068.53;;;7.20;100.00
12486;BME280;6307;46.804;11.580;2022-11-15T06:18:07;-21067.78;;;7.18;100.00
12486;BME280;6307;46.804;11.580;2022-11-15T06:20:33;-21065.38;;;7.10;100.00
12486;BME280;6307;46.804;11.580;2022-11-15T06:23:03;-21068.38;;;7.20;100.00
12486;BME280;6307;46.804;11.580;2022-11-15T06:25:30;-21067.78;;;7.18;100.00
12486;BME280;6307;46.804;11.580;2022-11-15T06:27:58;-21063.88;;;7.05;100.00
12486;BME280;6307;46.804;11.580;2022-11-15T06:30:25;-21065.97;;;7.12;100.00
12486;BME280;6307;46.804;11.580;2022-11-15T06:32:58;-21062.81;;;7.01;100.00
12486;BME280;6307;46.804;11.580;2022-11-15T06:35:29;-21065.38;;;7.10;100.00
12486;BME280;6307;46.804;11.580;2022-11-15T06:37:57;-21072.59;;;7.33;100.00
12486;BME280;6307;46.804;11.580;2022-11-15T06:40:28;-21074.69;;;7.40;100.00
12486;BME280;6307;46.804;11.580;2022-11-15T06:42:58;-21073.34;;;7.36;100.00
12486;BME280;6307;46.804;11.580;2022-11-15T06:45:25;-21068.69;;;7.21;100.00
12486;BME280;6307;46.804;11.580;2022-11-15T06:47:52;-21068.84;;;7.21;100.00
12486;BME280;6307;46.804;11.580;2022-11-15T06:50:19;-21069.59;;;7.23;100.00
12486;BME280;6307;46.804;11.580;2022-11-15T06:52:45;-21069.75;;;7.24;100.00
12486;BME280;6307;46.804;11.580;2022-11-15T06:55:11;-21074.41;;;7.39;100.00
12486;BME280;6307;46.804;11.580;2022-11-15T06:57:46;-21071.69;;;7.30;100.00
12486;BME280;6307;46.804;11.580;2022-11-15T07:00:17;-21069.59;;;7.23;100.00
12486;BME280;6307;46.804;11.580;2022-11-15T07:02:45;-21070.03;;;7.25;100.00
12486;BME280;6307;46.804;11.580;2022-11-15T07:05:12;-21066.44;;;7.13;100.00
12486;BME280;6307;46.804;11.580;2022-11-15T07:07:39;-21072.16;;;7.32;100.00
12486;BME280;6307;46.804;11.580;2022-11-15T07:10:06;-21075.00;;;7.41;100.00
12486;BME280;6307;46.804;11.580;2022-11-15T07:12:33;-21076.34;;;7.46;100.00
12486;BME280;6307;46.804;11.580;2022-11-15T07:15:00;-21073.34;;;7.36;100.00
12486;BME280;6307;46.804;11.580;2022-11-15T07:17:26;-21073.19;;;7.35;100.00
12486;BME280;6307;46.804;11.580;2022-11-15T07:19:52;-21068.69;;;7.21;100.00
12486;BME280;6307;46.804;11.580;2022-11-15T07:22:18;-21074.53;;;7.40;100.00
12486;BME280;6307;46.804;11.580;2022-11-15T07:24:44;-21072.59;;;7.33;100.00
12486;BME280;6307;46.804;11.580;2022-11-15T07:27:10;-21072.28;;;7.32;100.00
12486;BME280;6307;46.804;11.580;2022-11-15T07:29:36;-21076.34;;;7.46;100.00
12486;BME280;6307;46.804;11.580;2022-11-15T07:32:02;-21078.91;;;7.54;100.00
12486;BME280;6307;46.804;11.580;2022-11-15T07:34:29;-21076.81;;;7.47;100.00
12486;BME280;6307;46.804;11.580;2022-11-15T07:36:55;-21078.47;;;7.53;100.00
12486;BME280;6307;46.804;11.580;2022-11-15T07:39:21;-21081.00;;;7.61;100.00
12486;BME280;6307;46.804;11.580;2022-11-15T07:41:47;-21080.72;;;7.60;100.00
12486;BME280;6307;46.804;11.580;2022-11-15T07:44:14;-21081.47;;;7.63;100.00
12486;BME280;6307;46.804;11.580;2022-11-15T07:46:40;-21079.34;;;7.56;100.00
12486;BME280;6307;46.804;11.580;2022-11-15T07:49:06;-21083.88;;;7.71;100.00
12486;BME280;6307;46.804;11.580;2022-11-15T07:51:32;-21089.72;;;7.90;100.00
12486;BME280;6307;46.804;11.580;2022-11-15T07:53:58;-21087.03;;;7.81;100.00
12486;BME280;6307;46.804;11.580;2022-11-15T07:56:24;-21082.50;;;7.66;100.00
12486;BME280;6307;46.804;11.580;2022-11-15T07:58:51;-21084.78;;;7.74;100.00
12486;BME280;6307;46.804;11.580;2022-11-15T08:01:17;-21091.09;;;7.95;100.00
12486;BME280;6307;46.804;11.580;2022-11-15T08:03:43;-21088.22;;;7.85;100.00
12486;BME280;6307;46.804;11.580;2022-11-15T08:06:09;-21093.03;;;8.01;100.00
12486;BME280;6307;46.804;11.580;2022-11-15T08:08:35;-21097.69;;;8.17;100.00
12486;BME280;6307;46.804;11.580;2022-11-15T08:11:01;-21102.22;;;8.32;100.00
12486;BME280;6307;46.804;11.580;2022-11-15T08:13:28;-21095.13;;;8.08;100.00
12486;BME280;6307;46.804;11.580;2022-11-15T08:15:59;-21099.66;;;8.23;100.00
12486;BME280;6307;46.804;11.580;2022-11-15T08:18:26;-21101.31;;;8.29;100.00
12486;BME280;6307;46.804;11.580;2022-11-15T08:20:52;-21102.34;;;8.32;100.00
12486;BME280;6307;46.804;11.580;2022-11-15T08:23:18;-21098.91;;;8.21;100.00
12486;BME280;6307;46.804;11.580;2022-11-15T08:25:44;-21104.00;;;8.38;100.00
12486;BME280;6307;46.804;11.580;2022-11-15T08:28:11;-21105.06;;;8.41;100.00
12486;BME280;6307;46.804;11.580;2022-11-15T08:30:39;-21104.44;;;8.39;100.00
12486;BME280;6307;46.804;11.580;2022-11-15T08:33:10;-21107.91;;;8.51;100.00
12486;BME280;6307;46.804;11.580;2022-11-15T08:35:38;-21105.34;;;8.42;100.00
12486;BME280;6307;46.804;11.580;2022-11-15T08:38:08;-21115.41;;;8.76;100.00
12486;BME280;6307;46.804;11.580;2022-11-15T08:40:35;-21117.06;;;8.81;100.00
12486;BME280;6307;46.804;11.580;2022-11-15T08:43:01;-21120.97;;;8.94;100.00
12486;BME280;6307;46.804;11.580;2022-11-15T08:45:29;-21117.69;;;8.83;100.00
12486;BME280;6307;46.804;11.580;2022-11-15T08:47:55;-21117.22;;;8.82;100.00
12486;BME280;6307;46.804;11.580;2022-11-15T08:50:22;-21108.34;;;8.52;100.00
12486;BME280;6307;46.804;11.580;2022-11-15T08:52:48;-21120.53;;;8.93;100.00
12486;BME280;6307;46.804;11.580;2022-11-15T08:55:14;-21125.63;;;9.10;100.00
12486;BME280;6307;46.804;11.580;2022-11-15T08:57:41;-21120.97;;;8.94;100.00
12486;BME280;6307;46.804;11.580;2022-11-15T09:00:07;-21114.81;;;8.74;100.00
12486;BME280;6307;46.804;11.580;2022-11-15T09:02:34;-21112.56;;;8.66;100.00
12486;BME280;6307;46.804;11.580;2022-11-15T09:05:02;-21109.09;;;8.55;100.00
12486;BME280;6307;46.804;11.580;2022-11-15T09:07:28;-21113.75;;;8.70;100.00
12486;BME280;6307;46.804;11.580;2022-11-15T09:09:55;-21111.81;;;8.64;100.00
12486;BME280;6307;46.804;11.580;2022-11-15T09:12:21;-21111.22;;;8.62;100.00
12486;BME280;6307;46.804;11.580;2022-11-15T09:14:48;-21112.88;;;8.67;100.00
12486;BME280;6307;46.804;11.580;2022-11-15T09:17:14;-21113.75;;;8.70;100.00
12486;BME280;6307;46.804;11.580;2022-11-15T09:19:40;-21114.97;;;8.74;100.00
12486;BME280;6307;46.804;11.580;2022-11-15T09:22:07;-21116.91;;;8.81;100.00
12486;BME280;6307;46.804;11.580;2022-11-15T09:24:34;-21119.03;;;8.88;100.00
12486;BME280;6307;46.804;11.580;2022-11-15T09:27:00;-21119.31;;;8.89;100.00
12486;BME280;6307;46.804;11.580;2022-11-15T09:29:27;-21115.13;;;8.75;100.00
12486;BME280;6307;46.804;11.580;2022-11-15T09:31:54;-21115.88;;;8.77;100.00
12486;BME280;6307;46.804;11.580;2022-11-15T09:34:20;-21110.63;;;8.60;100.00
12486;BME280;6307;46.804;11.580;2022-11-15T09:36:46;-21117.06;;;8.81;100.00
12486;BME280;6307;46.804;11.580;2022-11-15T09:39:12;-21115.28;;;8.75;100.00
12486;BME280;6307;46.804;11.580;2022-11-15T09:46:59;-21115.41;;;8.76;100.00
12486;BME280;6307;46.804;11.580;2022-11-15T09:49:29;-21111.50;;;8.63;100.00
12486;BME280;6307;46.804;11.580;2022-11-15T09:51:56;-21109.56;;;8.56;100.00
12486;BME280;6307;46.804;11.580;2022-11-15T09:54:39;-21112.88;;;8.67;100.00
12486;BME280;6307;46.804;11.580;2022-11-15T09:57:21;-21109.72;;;8.57;100.00
12486;BME280;6307;46.804;11.580;2022-11-15T10:00:38;-21095.00;;;8.08;100.00
12486;BME280;6307;46.804;11.580;2022-11-15T10:05:47;-21117.81;;;8.84;100.00
12486;BME280;6307;46.804;11.580;2022-11-15T10:08:40;-21120.66;;;8.93;100.00
12486;BME280;6307;46.804;11.580;2022-11-15T10:11:23;-21130.72;;;9.27;100.00
12486;BME280;6307;46.804;11.580;2022-11-15T10:13:59;-21125.19;;;9.08;100.00
12486;BME280;6307;46.804;11.580;2022-11-15T10:27:34;-21141.38;;;9.62;100.00
12486;BME280;6307;46.804;11.580;2022-11-15T10:30:03;-21148.00;;;9.84;100.00
12486;BME280;6307;46.804;11.580;2022-11-15T10:32:36;-21150.38;;;9.92;100.00
12486;BME280;6307;46.804;11.580;2022-11-15T10:35:22;-21160.00;;;10.24;100.00
12486;BME280;6307;46.804;11.580;2022-11-15T10:37:49;-21170.50;;;10.59;100.00
12486;BME280;6307;46.804;11.580;2022-11-15T10:40:19;-21170.66;;;10.60;99.78
12486;BME280;6307;46.804;11.580;2022-11-15T10:42:47;-21171.53;;;10.63;100.00
12486;BME280;6307;46.804;11.580;2022-11-15T10:45:34;-21164.78;;;10.40;99.84
12486;BME280;6307;46.804;11.580;2022-11-15T10:50:44;-21156.53;;;10.13;100.00
12486;BME280;6307;46.804;11.580;2022-11-15T10:53:33;-21155.50;;;10.09;100.00
12486;BME280;6307;46.804;11.580;2022-11-15T10:56:12;-21139.28;;;9.55;100.00
12486;BME280;6307;46.804;11.580;2022-11-15T10:58:50;-21141.25;;;9.62;100.00
12486;BME280;6307;46.804;11.580;2022-11-15T11:04:20;-21139.13;;;9.55;100.00
12486;BME280;6307;46.804;11.580;2022-11-15T11:09:31;-21135.53;;;9.43;100.00
12486;BME280;6307;46.804;11.580;2022-11-15T11:11:59;-21138.53;;;9.53;100.00
12486;BME280;6307;46.804;11.580;2022-11-15T11:14:28;-21137.94;;;9.51;100.00
12486;BME280;6307;46.804;11.580;2022-11-15T11:20:20;-21138.38;;;9.52;100.00
12486;BME280;6307;46.804;11.580;2022-11-15T11:35:17;-21139.59;;;9.56;100.00
12486;BME280;6307;46.804;11.580;2022-11-15T11:38:03;-21139.28;;;9.55;100.00
12486;BME280;6307;46.804;11.580;2022-11-15T11:41:06;-21131.63;;;9.30;100.00
12486;BME280;6307;46.804;11.580;2022-11-15T11:47:09;-21133.13;;;9.35;100.00
12486;BME280;6307;46.804;11.580;2022-11-15T11:49:46;-21135.53;;;9.43;100.00
12486;BME280;6307;46.804;11.580;2022-11-15T11:55:18;-21141.09;;;9.61;100.00
12486;BME280;6307;46.804;11.580;2022-11-15T11:58:14;-21140.94;;;9.61;100.00
12486;BME280;6307;46.804;11.580;2022-11-15T12:00:55;-21141.84;;;9.64;100.00
12486;BME280;6307;46.804;11.580;2022-11-15T12:07:03;-21144.38;;;9.72;100.00
12486;BME280;6307;46.804;11.580;2022-11-15T12:09:48;-21149.94;;;9.91;100.00
12486;BME280;6307;46.804;11.580;2022-11-15T12:15:47;-21161.50;;;10.29;100.00
12486;BME280;6307;46.804;11.580;2022-11-15T12:18:22;-21167.50;;;10.49;100.00
12486;BME280;6307;46.804;11.580;2022-11-15T12:20:53;-21172.28;;;10.65;99.29
12486;BME280;6307;46.804;11.580;2022-11-15T12:23:29;-21181.59;;;10.96;100.00
12486;BME280;6307;46.804;11.580;2022-11-15T12:26:25;-21183.69;;;11.03;95.54
12486;BME280;6307;46.804;11.580;2022-11-15T12:29:00;-21190.13;;;11.25;91.04
12486;BME280;6307;46.804;11.580;2022-11-15T12:31:37;-21188.94;;;11.21;96.18
12486;BME280;6307;46.804;11.580;2022-11-15T12:36:49;-21196.13;;;11.45;99.07
12486;BME280;6307;46.804;11.580;2022-11-15T12:39:17;-21189.97;;;11.24;96.06
12486;BME280;6307;46.804;11.580;2022-11-15T12:59:55;-21189.97;;;11.24;91.06
12486;BME280;6307;46.804;11.580;2022-11-15T13:02:25;-21195.38;;;11.42;89.35
12486;BME280;6307;46.804;11.580;2022-11-15T13:04:54;-21198.81;;;11.54;91.55
12486;BME280;6307;46.804;11.580;2022-11-15T13:15:30;-21193.88;;;11.37;97.60
12486;BME280;6307;46.804;11.580;2022-11-15T13:17:58;-21190.72;;;11.27;98.79
12486;BME280;6307;46.804;11.580;2022-11-15T13:20:44;-21198.22;;;11.52;97.42
12486;BME280;6307;46.804;11.580;2022-11-15T13:23:13;-21198.97;;;11.54;97.62
12486;BME280;6307;46.804;11.580;2022-11-15T13:28:48;-21201.97;;;11.64;94.54
12486;BME280;6307;46.804;11.580;2022-11-15T13:31:40;-21199.88;;;11.57;91.19
12486;BME280;6307;46.804;11.580;2022-11-15T13:34:28;-21193.88;;;11.37;90.38
12486;BME280;6307;46.804;11.580;2022-11-15T13:36:58;-21192.06;;;11.31;95.37
12486;BME280;6307;46.804;11.580;2022-11-15T13:39:29;-21184.88;;;11.07;94.58
12486;BME280;6307;46.804;11.580;2022-11-15T13:41:59;-21171.69;;;10.63;96.25
12486;BME280;6307;46.804;11.580;2022-11-15T13:44:31;-21179.50;;;10.89;96.40
12486;BME280;6307;46.804;11.580;2022-11-15T13:47:15;-21185.19;;;11.08;99.35
12486;BME280;6307;46.804;11.580;2022-11-15T13:49:44;-21188.03;;;11.18;96.64
12486;BME280;6307;46.804;11.580;2022-11-15T13:52:13;-21188.78;;;11.20;91.44
12486;BME280;6307;46.804;11.580;2022-11-15T13:54:52;-21181.88;;;10.97;97.66
12486;BME280;6307;46.804;11.580;2022-11-15T13:57:26;-21195.06;;;11.41;99.76
12486;BME280;6307;46.804;11.580;2022-11-15T14:00:03;-21196.72;;;11.47;96.62
12486;BME280;6307;46.804;11.580;2022-11-15T14:02:47;-21203.78;;;11.70;97.65
12486;BME280;6307;46.804;11.580;2022-11-15T14:05:17;-21195.69;;;11.43;95.88
12486;BME280;6307;46.804;11.580;2022-11-15T14:07:58;-21181.59;;;10.96;96.55
12486;BME280;6307;46.804;11.580;2022-11-15T14:10:37;-21188.47;;;11.19;98.44
12486;BME280;6307;46.804;11.580;2022-11-15T14:13:11;-21193.28;;;11.35;94.37
12486;BME280;6307;46.804;11.580;2022-11-15T14:15:53;-21188.63;;;11.20;99.22
12486;BME280;6307;46.804;11.580;2022-11-15T14:18:59;-21195.81;;;11.44;96.96
12486;BME280;6307;46.804;11.580;2022-11-15T14:21:24;-21195.97;;;11.44;100.00
12486;BME280;6307;46.804;11.580;2022-11-15T14:23:50;-21188.03;;;11.18;100.00
12486;BME280;6307;46.804;11.580;2022-11-15T14:26:28;-21180.84;;;10.94;97.82
12486;BME280;6307;46.804;11.580;2022-11-15T14:29:24;-21175.28;;;10.75;97.96
12486;BME280;6307;46.804;11.580;2022-11-15T14:31:52;-21187.88;;;11.17;98.66
12486;BME280;6307;46.804;11.580;2022-11-15T14:34:34;-21189.22;;;11.22;99.56
12486;BME280;6307;46.804;11.580;2022-11-15T14:37:00;-21193.13;;;11.35;94.65
12486;BME280;6307;46.804;11.580;2022-11-15T14:39:26;-21192.81;;;11.34;94.35
12486;BME280;6307;46.804;11.580;2022-11-15T14:41:52;-21194.47;;;11.39;100.00
12486;BME280;6307;46.804;11.580;2022-11-15T14:44:18;-21191.47;;;11.29;100.00
12486;BME280;6307;46.804;11.580;2022-11-15T14:46:45;-21187.88;;;11.17;100.00
12486;BME280;6307;46.804;11.580;2022-11-15T14:49:13;-21182.63;;;11.00;100.00
12486;BME280;6307;46.804;11.580;2022-11-15T14:51:40;-21181.28;;;10.95;100.00
12486;BME280;6307;46.804;11.580;2022-11-15T14:54:10;-21180.84;;;10.94;100.00
12486;BME280;6307;46.804;11.580;2022-11-15T14:56:36;-21186.69;;;11.13;100.00
12486;BME280;6307;46.804;11.580;2022-11-15T14:59:02;-21186.38;;;11.12;100.00
12486;BME280;6307;46.804;11.580;2022-11-15T15:01:28;-21179.78;;;10.90;100.00
12486;BME280;6307;46.804;11.580;2022-11-15T15:03:54;-21180.09;;;10.91;100.00
12486;BME280;6307;46.804;11.580;2022-11-15T15:06:22;-21177.38;;;10.82;100.00
12486;BME280;6307;46.804;11.580;2022-11-15T15:08:48;-21177.53;;;10.83;100.00
12486;BME280;6307;46.804;11.580;2022-11-15T15:11:21;-21180.69;;;10.93;100.00
12486;BME280;6307;46.804;11.580;2022-11-15T15:13:49;-21179.50;;;10.89;100.00
12486;BME280;6307;46.804;11.580;2022-11-15T15:16:17;-21178.88;;;10.87;100.00